CheckWX is a tool to help pilots better visualize weather data.  It is not intended as a substitute for an official pre-flight weather briefing.

17:27:45 UTC

CYGV METAR
Havre St Pierre Airport
Havre St-Pierre, Canada
Current

28 mins ago

CYGV 241700Z AUTO 26030G37KT 9SM FEW240 M01/M06 A2939 RMK SLP956
Observed
Mar-24 @ 17:00 UTC
Wind
  • 260° at 30 KTS
  • Gusting to 37 KTS
Visibility
9 SM
Flight Rules
VFR
Cloud Levels
  • Few at 24,000' AGL
Temperature
-1°C / 30°F
Dewpoint
-6°C / 21°F
Humidity
69%
Altimeter
29.39" Hg
Pressure
995.6 hPa
Previous

1 hour ago

CYGV 241600Z AUTO 26028G35KT 9SM FEW220 M01/M07 A2938 RMK SLP954
Observed
Mar-24 @ 16:00 UTC
Wind
  • 260° at 28 KTS
  • Gusting to 35 KTS
Visibility
9 SM
Flight Rules
VFR
Cloud Levels
  • Few at 22,000' AGL
Temperature
-1°C / 30°F
Dewpoint
-7°C / 19°F
Humidity
64%
Altimeter
29.38" Hg
Pressure
995.4 hPa
Previous

2 hours ago

CYGV 241500Z AUTO 26020KT 9SM FEW120 BKN240 M01/M07 A2940 RMK SLP961
Observed
Mar-24 @ 15:00 UTC
Wind
  • 260° at 20 KTS
Visibility
9 SM
Flight Rules
VFR
Cloud Levels
  • Few at 12,000' AGL
  • Broken at 24,000' AGL
Temperature
-1°C / 30°F
Dewpoint
-7°C / 19°F
Humidity
64%
Altimeter
29.4" Hg
Pressure
996.1 hPa